Time;durP1;ratioP1;P1;durP2;ratioP2;P2;SDS_P1;SDS_P2;PMS_P1;PMS_P2;Temp;Humidity;BMP_temperature;BMP_pressure;BME280_temperature;BME280_humidity;BME280_pressure;Samples;Min_cycle;Max_cycle;Signal;HPM_P1;HPM_P2
2022/07/21 00:00:28;;;;;;;;;;;19.30;99.90;;;;;;5013013;28;19926;-70
2022/07/21 00:02:55;;;;;;;;;;;19.10;99.90;;;;;;5012774;28;20396;-70
2022/07/21 00:05:22;;;;;;;;;;;19.20;99.90;;;;;;5013114;28;20052;-71
2022/07/21 00:07:49;;;;;;;;;;;19.20;99.90;;;;;;5007484;28;19933;-71
2022/07/21 00:10:16;;;;;;;;;;;19.20;99.90;;;;;;5005316;28;20001;-70
2022/07/21 00:12:42;;;;;;;;;;;19.10;99.90;;;;;;5028759;28;19937;-70
2022/07/21 00:15:12;;;;;;;;;;;19.00;99.90;;;;;;5012581;28;19929;-69
2022/07/21 00:17:38;;;;;;;;;;;19.00;99.90;;;;;;5012765;28;19929;-70
2022/07/21 00:20:07;;;;;;;;;;;19.00;99.90;;;;;;5012314;28;19937;-70
2022/07/21 00:22:33;;;;;;;;;;;19.00;99.90;;;;;;5012248;28;19929;-70
2022/07/21 00:25:00;;;;;;;;;;;19.00;99.90;;;;;;5012871;28;19929;-70
2022/07/21 00:27:27;;;;;;;;;;;19.00;99.90;;;;;;5012326;28;19926;-71
2022/07/21 00:29:54;;;;;;;;;;;19.00;99.90;;;;;;5012601;28;19925;-70
2022/07/21 00:32:22;;;;;;;;;;;19.00;99.90;;;;;;5012223;28;19926;-70
2022/07/21 00:34:49;;;;;;;;;;;19.00;99.90;;;;;;5021231;28;19926;-70
2022/07/21 00:37:16;;;;;;;;;;;18.90;99.90;;;;;;5011479;28;19967;-71
2022/07/21 00:39:42;;;;;;;;;;;19.00;99.90;;;;;;5011514;28;19932;-70
2022/07/21 00:42:20;;;;;;;;;;;18.90;99.90;;;;;;5005640;28;19933;-70
2022/07/21 00:44:47;;;;;;;;;;;19.00;99.90;;;;;;5012298;28;20344;-70
2022/07/21 00:47:13;;;;;;;;;;;19.00;99.90;;;;;;5012419;28;19926;-70
2022/07/21 00:49:42;;;;;;;;;;;19.10;99.90;;;;;;5011644;28;19929;-70
2022/07/21 00:52:09;;;;;;;;;;;19.00;99.90;;;;;;5012349;28;20377;-70
2022/07/21 00:54:35;;;;;;;;;;;19.00;99.90;;;;;;5011783;28;20333;-70
2022/07/21 00:57:02;;;;;;;;;;;19.00;99.90;;;;;;5012138;28;19948;-70
2022/07/21 00:59:30;;;;;;;;;;;19.00;99.90;;;;;;5011262;28;20384;-70
2022/07/21 01:01:56;;;;;;;;;;;19.00;99.90;;;;;;5008466;28;19934;-70
2022/07/21 01:04:23;;;;;;;;;;;19.00;99.90;;;;;;5011615;28;19933;-70
2022/07/21 01:06:52;;;;;;;;;;;19.00;99.90;;;;;;5011939;28;19926;-70
2022/07/21 01:09:18;;;;;;;;;;;18.90;99.90;;;;;;5011512;28;19995;-70
2022/07/21 01:11:45;;;;;;;;;;;18.90;99.90;;;;;;5004334;28;19929;-70
2022/07/21 01:14:13;;;;;;;;;;;18.90;99.90;;;;;;5007047;28;19930;-70
2022/07/21 01:16:40;;;;;;;;;;;18.90;99.90;;;;;;5005853;28;19973;-70
2022/07/21 01:19:06;;;;;;;;;;;18.90;99.90;;;;;;4999490;28;19961;-70
2022/07/21 01:21:35;;;;;;;;;;;18.90;99.90;;;;;;5028044;28;19948;-70
2022/07/21 01:24:03;;;;;;;;;;;18.90;99.90;;;;;;5011661;28;19933;-70
2022/07/21 01:26:30;;;;;;;;;;;18.80;99.90;;;;;;5011621;28;19926;-70
2022/07/21 01:28:57;;;;;;;;;;;18.80;99.90;;;;;;5011311;28;19933;-70
2022/07/21 01:31:24;;;;;;;;;;;18.70;99.90;;;;;;5011314;28;20005;-71
2022/07/21 01:33:51;;;;;;;;;;;18.60;99.90;;;;;;5025638;28;19926;-70
2022/07/21 01:36:18;;;;;;;;;;;18.60;99.90;;;;;;5011189;28;20012;-70
2022/07/21 01:41:30;;;;;;;;;;;18.70;99.90;;;;;;5011469;28;20019;-71
2022/07/21 01:43:57;;;;;;;;;;;18.70;99.90;;;;;;5011452;28;19937;-70
2022/07/21 01:46:24;;;;;;;;;;;18.70;99.90;;;;;;5011323;28;19933;-70
2022/07/21 01:48:50;;;;;;;;;;;18.70;99.90;;;;;;5007840;28;19926;-69
2022/07/21 01:51:17;;;;;;;;;;;18.60;99.90;;;;;;5009516;28;19932;-70
2022/07/21 01:53:47;;;;;;;;;;;18.60;99.90;;;;;;5010414;28;20210;-70
2022/07/21 01:56:14;;;;;;;;;;;18.60;99.90;;;;;;5027810;28;19925;-70
2022/07/21 01:58:41;;;;;;;;;;;18.70;99.90;;;;;;5010943;28;19933;-71
2022/07/21 02:01:08;;;;;;;;;;;18.60;99.90;;;;;;5011006;28;19934;-70
2022/07/21 02:03:34;;;;;;;;;;;18.60;99.90;;;;;;5010738;28;19926;-70
2022/07/21 02:06:02;;;;;;;;;;;18.60;99.90;;;;;;5011182;28;19933;-70
2022/07/21 02:08:29;;;;;;;;;;;18.60;99.90;;;;;;5010532;28;20024;-70
2022/07/21 02:10:57;;;;;;;;;;;18.60;99.90;;;;;;5010577;28;19925;-70
2022/07/21 02:13:24;;;;;;;;;;;18.60;99.90;;;;;;5010649;28;20061;-70
2022/07/21 02:15:51;;;;;;;;;;;18.70;99.90;;;;;;5010994;28;19926;-70
2022/07/21 02:18:18;;;;;;;;;;;18.70;99.90;;;;;;5010871;28;19926;-70
2022/07/21 02:20:47;;;;;;;;;;;18.70;99.90;;;;;;5010777;28;19926;-70
2022/07/21 02:23:14;;;;;;;;;;;18.80;99.90;;;;;;5005905;28;19925;-71
2022/07/21 02:25:40;;;;;;;;;;;18.80;99.90;;;;;;5010915;28;19925;-70
2022/07/21 02:28:09;;;;;;;;;;;18.80;99.90;;;;;;5010595;28;19929;-70
2022/07/21 02:30:35;;;;;;;;;;;18.80;99.90;;;;;;5010418;28;19930;-70
2022/07/21 02:33:02;;;;;;;;;;;18.80;99.90;;;;;;5010522;28;19929;-70
2022/07/21 02:35:29;;;;;;;;;;;18.80;99.90;;;;;;5014563;28;19926;-70
2022/07/21 02:37:56;;;;;;;;;;;18.80;99.90;;;;;;5012746;28;19929;-70
2022/07/21 02:40:23;;;;;;;;;;;18.80;99.90;;;;;;5014163;28;19933;-70
2022/07/21 02:42:50;;;;;;;;;;;18.80;99.90;;;;;;5014602;28;19979;-70
2022/07/21 02:45:18;;;;;;;;;;;18.70;99.90;;;;;;5014624;28;20282;-70
2022/07/21 02:47:49;;;;;;;;;;;18.70;99.90;;;;;;5014515;28;19972;-70
2022/07/21 02:50:16;;;;;;;;;;;18.80;99.90;;;;;;5014131;28;19929;-70
2022/07/21 02:52:43;;;;;;;;;;;18.90;99.90;;;;;;5007627;28;19940;-70
2022/07/21 02:55:10;;;;;;;;;;;18.90;99.90;;;;;;5014444;28;19933;-71
2022/07/21 02:57:37;;;;;;;;;;;19.00;99.90;;;;;;5030380;28;19930;-70
2022/07/21 03:00:04;;;;;;;;;;;18.90;99.90;;;;;;5013934;28;19926;-70
2022/07/21 03:02:32;;;;;;;;;;;19.00;99.90;;;;;;5014340;28;19929;-70
2022/07/21 03:04:59;;;;;;;;;;;19.00;99.90;;;;;;5014448;28;20351;-70
2022/07/21 03:07:26;;;;;;;;;;;19.00;99.90;;;;;;5005971;28;20393;-70
2022/07/21 03:09:53;;;;;;;;;;;18.90;99.90;;;;;;5012731;28;20462;-70
2022/07/21 03:12:20;;;;;;;;;;;18.90;99.90;;;;;;5013834;28;19932;-70
2022/07/21 03:14:46;;;;;;;;;;;18.80;99.90;;;;;;5014225;28;19933;-70
2022/07/21 03:17:13;;;;;;;;;;;18.80;99.90;;;;;;5014170;28;20294;-70
2022/07/21 03:19:41;;;;;;;;;;;18.70;99.90;;;;;;5013539;28;19932;-69
2022/07/21 03:22:08;;;;;;;;;;;18.70;99.90;;;;;;5006088;28;19926;-69
2022/07/21 03:24:35;;;;;;;;;;;18.70;99.90;;;;;;5028594;28;20309;-69
2022/07/21 03:27:02;;;;;;;;;;;18.70;99.90;;;;;;5013851;28;19926;-69
2022/07/21 03:29:28;;;;;;;;;;;18.80;99.90;;;;;;5013195;28;19948;-69
2022/07/21 03:31:55;;;;;;;;;;;18.80;99.90;;;;;;5013557;28;19925;-69
2022/07/21 03:34:22;;;;;;;;;;;18.80;99.90;;;;;;5014067;28;19926;-69
2022/07/21 03:36:50;;;;;;;;;;;18.90;99.90;;;;;;5009416;28;19976;-69
2022/07/21 03:39:17;;;;;;;;;;;18.90;99.90;;;;;;5028778;28;19980;-70
2022/07/21 03:41:43;;;;;;;;;;;18.90;99.90;;;;;;5013224;28;19930;-69
2022/07/21 03:44:10;;;;;;;;;;;18.90;99.90;;;;;;5013497;28;19926;-69
2022/07/21 03:46:37;;;;;;;;;;;19.00;99.90;;;;;;5012362;28;19936;-69
2022/07/21 03:49:04;;;;;;;;;;;19.10;99.90;;;;;;5012850;28;19925;-69
2022/07/21 03:51:30;;;;;;;;;;;19.10;99.90;;;;;;5012550;28;20412;-69
2022/07/21 03:54:01;;;;;;;;;;;19.00;99.90;;;;;;5013224;28;19933;-69
2022/07/21 03:56:28;;;;;;;;;;;18.90;99.90;;;;;;5012889;28;19953;-69
2022/07/21 03:58:55;;;;;;;;;;;19.00;99.90;;;;;;5012942;28;19929;-68
2022/07/21 04:01:22;;;;;;;;;;;18.90;99.90;;;;;;5013297;28;19980;-69
2022/07/21 04:03:48;;;;;;;;;;;18.90;99.90;;;;;;5007501;28;20320;-69
2022/07/21 04:06:15;;;;;;;;;;;18.90;99.90;;;;;;5013083;28;19925;-69
2022/07/21 04:08:42;;;;;;;;;;;18.90;99.90;;;;;;5012942;28;19947;-69
2022/07/21 04:11:10;;;;;;;;;;;18.90;99.90;;;;;;5012702;28;19941;-68
2022/07/21 04:13:37;;;;;;;;;;;18.90;99.90;;;;;;5029375;28;19983;-69
2022/07/21 04:16:04;;;;;;;;;;;18.80;99.90;;;;;;5012945;28;19933;-68
2022/07/21 04:18:30;;;;;;;;;;;18.70;99.90;;;;;;5012517;28;19929;-69
2022/07/21 04:20:57;;;;;;;;;;;18.70;99.90;;;;;;5012610;28;19933;-69
2022/07/21 04:23:24;;;;;;;;;;;18.70;99.90;;;;;;5012771;28;19932;-68
2022/07/21 04:25:51;;;;;;;;;;;18.70;99.90;;;;;;5012933;28;19926;-69
2022/07/21 04:28:19;;;;;;;;;;;18.80;99.90;;;;;;5012636;28;20024;-69
2022/07/21 04:30:46;;;;;;;;;;;18.80;99.90;;;;;;5012615;28;19925;-68
2022/07/21 04:33:13;;;;;;;;;;;18.90;99.90;;;;;;5012263;28;19929;-68
2022/07/21 04:35:40;;;;;;;;;;;18.80;99.90;;;;;;5005821;28;19925;-68
2022/07/21 04:38:06;;;;;;;;;;;18.90;99.90;;;;;;5012359;28;19929;-69
2022/07/21 04:40:33;;;;;;;;;;;18.90;99.90;;;;;;5004949;28;19929;-69
2022/07/21 04:43:00;;;;;;;;;;;18.90;99.90;;;;;;5005866;28;19926;-69
2022/07/21 04:45:28;;;;;;;;;;;18.90;99.90;;;;;;5012479;28;19936;-69
2022/07/21 04:47:56;;;;;;;;;;;18.90;99.90;;;;;;5012383;28;19925;-68
2022/07/21 04:50:24;;;;;;;;;;;19.00;99.90;;;;;;5012219;28;19929;-68
2022/07/21 04:52:51;;;;;;;;;;;19.00;99.90;;;;;;5012504;28;19926;-69
2022/07/21 04:55:19;;;;;;;;;;;19.00;99.90;;;;;;5012060;28;19946;-69
2022/07/21 04:57:46;;;;;;;;;;;19.10;99.90;;;;;;5011426;28;19925;-69
2022/07/21 05:00:15;;;;;;;;;;;19.10;99.90;;;;;;5011925;28;19976;-70
2022/07/21 05:02:43;;;;;;;;;;;19.10;99.90;;;;;;5007294;28;19929;-70
2022/07/21 05:05:10;;;;;;;;;;;19.20;99.90;;;;;;5011666;28;20463;-70
2022/07/21 05:07:37;;;;;;;;;;;19.20;99.90;;;;;;5011765;28;19933;-70
2022/07/21 05:10:05;;;;;;;;;;;19.20;99.90;;;;;;5011753;28;19926;-70
2022/07/21 05:12:32;;;;;;;;;;;19.20;99.90;;;;;;5011818;28;20356;-70
2022/07/21 05:14:58;;;;;;;;;;;19.20;99.90;;;;;;5011667;28;19929;-70
2022/07/21 05:17:25;;;;;;;;;;;19.20;99.90;;;;;;5011708;28;19929;-70
2022/07/21 05:19:53;;;;;;;;;;;19.20;99.90;;;;;;5011160;28;20336;-69
2022/07/21 05:22:20;;;;;;;;;;;19.20;99.90;;;;;;5009936;28;19926;-72
2022/07/21 05:24:47;;;;;;;;;;;19.20;99.90;;;;;;5007362;28;19926;-72
2022/07/21 05:27:14;;;;;;;;;;;19.20;99.90;;;;;;5009952;28;19925;-72
2022/07/21 05:29:40;;;;;;;;;;;19.00;99.90;;;;;;5004368;28;19926;-72
2022/07/21 05:32:07;;;;;;;;;;;18.90;99.90;;;;;;5010405;28;19930;-71
2022/07/21 05:34:34;;;;;;;;;;;19.00;99.90;;;;;;5006506;28;19926;-71
2022/07/21 05:37:02;;;;;;;;;;;18.90;99.90;;;;;;5009991;28;19932;-71
2022/07/21 05:39:29;;;;;;;;;;;19.10;99.90;;;;;;5009782;28;19929;-71
2022/07/21 05:41:56;;;;;;;;;;;19.20;99.90;;;;;;5010052;28;19925;-70
2022/07/21 05:44:23;;;;;;;;;;;19.30;99.90;;;;;;5008637;28;19926;-71
2022/07/21 05:46:50;;;;;;;;;;;19.50;99.90;;;;;;5010165;28;19925;-71
2022/07/21 05:49:17;;;;;;;;;;;19.70;99.90;;;;;;5002533;28;19926;-71
2022/07/21 05:51:43;;;;;;;;;;;19.90;99.90;;;;;;5009509;28;20028;-71
2022/07/21 05:54:12;;;;;;;;;;;20.10;99.90;;;;;;5009983;28;19929;-71
2022/07/21 05:56:38;;;;;;;;;;;20.20;99.90;;;;;;5006975;28;20360;-71
2022/07/21 05:59:05;;;;;;;;;;;20.20;99.90;;;;;;5006768;28;19933;-71
2022/07/21 06:01:32;;;;;;;;;;;20.30;99.90;;;;;;5007791;28;19925;-70
2022/07/21 06:03:59;;;;;;;;;;;20.40;99.90;;;;;;5009900;28;19953;-70
2022/07/21 06:06:25;;;;;;;;;;;20.60;99.90;;;;;;5010216;28;19933;-71
2022/07/21 06:08:53;;;;;;;;;;;20.70;99.90;;;;;;5008941;28;19929;-71
2022/07/21 06:11:21;;;;;;;;;;;20.80;99.90;;;;;;5010213;28;19926;-71
2022/07/21 06:13:48;;;;;;;;;;;20.80;99.90;;;;;;5009908;28;19926;-71
2022/07/21 06:16:15;;;;;;;;;;;20.70;99.90;;;;;;5009609;28;20408;-71
2022/07/21 06:18:41;;;;;;;;;;;20.50;99.90;;;;;;5009633;28;19971;-71
2022/07/21 06:21:08;;;;;;;;;;;20.60;99.90;;;;;;5009382;28;19929;-71
2022/07/21 06:23:35;;;;;;;;;;;20.80;99.90;;;;;;5009502;28;19925;-71
2022/07/21 06:26:02;;;;;;;;;;;20.90;99.90;;;;;;5009803;28;19926;-71
2022/07/21 06:28:30;;;;;;;;;;;20.80;99.90;;;;;;5009087;28;19929;-71
2022/07/21 06:30:57;;;;;;;;;;;20.80;99.90;;;;;;5009370;28;19925;-71
2022/07/21 06:33:23;;;;;;;;;;;20.70;99.90;;;;;;5009011;28;19983;-71
2022/07/21 06:35:50;;;;;;;;;;;20.60;99.90;;;;;;5009431;28;19926;-71
2022/07/21 06:38:17;;;;;;;;;;;20.50;99.90;;;;;;5008741;28;19938;-70
2022/07/21 06:40:44;;;;;;;;;;;20.50;99.90;;;;;;5008952;28;19936;-71
2022/07/21 06:43:11;;;;;;;;;;;20.70;99.90;;;;;;5009024;28;19929;-71
2022/07/21 06:45:40;;;;;;;;;;;20.60;99.90;;;;;;5010435;28;20017;-72
2022/07/21 06:48:07;;;;;;;;;;;20.60;99.90;;;;;;5004161;28;20344;-71
2022/07/21 06:50:34;;;;;;;;;;;20.60;99.90;;;;;;5007320;28;19925;-72
2022/07/21 06:53:01;;;;;;;;;;;20.60;99.90;;;;;;5009197;28;20344;-70
2022/07/21 06:55:28;;;;;;;;;;;20.70;99.90;;;;;;5009235;28;20290;-71
2022/07/21 06:57:55;;;;;;;;;;;21.00;99.90;;;;;;5009013;28;19936;-70
2022/07/21 07:00:22;;;;;;;;;;;21.00;99.90;;;;;;5009217;28;19925;-71
2022/07/21 07:02:50;;;;;;;;;;;21.20;99.90;;;;;;5009095;28;19925;-71
2022/07/21 07:05:17;;;;;;;;;;;21.30;99.90;;;;;;5005474;28;20385;-69
2022/07/21 07:07:44;;;;;;;;;;;21.20;99.90;;;;;;5009127;28;19929;-72
2022/07/21 07:10:10;;;;;;;;;;;21.10;99.90;;;;;;5008818;28;20456;-71
2022/07/21 07:12:37;;;;;;;;;;;21.10;99.90;;;;;;5008361;28;19926;-71
2022/07/21 07:15:04;;;;;;;;;;;21.20;99.90;;;;;;5008752;28;19925;-71
2022/07/21 07:17:31;;;;;;;;;;;21.30;99.90;;;;;;5006961;28;19926;-71
2022/07/21 07:19:59;;;;;;;;;;;21.20;99.90;;;;;;5010069;28;19925;-71
2022/07/21 07:22:27;;;;;;;;;;;21.20;99.90;;;;;;5012538;28;19930;-73
2022/07/21 07:24:53;;;;;;;;;;;21.40;99.90;;;;;;5012892;28;19931;-71
2022/07/21 07:27:20;;;;;;;;;;;21.80;99.90;;;;;;5012789;28;20029;-71
2022/07/21 07:29:47;;;;;;;;;;;21.70;99.90;;;;;;5012125;28;19996;-71
2022/07/21 07:32:14;;;;;;;;;;;21.80;99.90;;;;;;5012417;28;19948;-72
2022/07/21 07:34:40;;;;;;;;;;;22.00;99.90;;;;;;5012178;28;20293;-72
2022/07/21 07:37:09;;;;;;;;;;;22.00;99.90;;;;;;5012928;28;19932;-72
2022/07/21 07:39:37;;;;;;;;;;;22.00;99.90;;;;;;5012011;28;19925;-72
2022/07/21 07:42:04;;;;;;;;;;;21.90;99.90;;;;;;5012192;28;19956;-71
2022/07/21 07:44:31;;;;;;;;;;;21.80;99.90;;;;;;5011769;28;19927;-71
2022/07/21 07:46:58;;;;;;;;;;;21.60;99.90;;;;;;5012592;28;19930;-72
2022/07/21 07:49:25;;;;;;;;;;;21.80;99.90;;;;;;5011885;28;19984;-71
2022/07/21 07:51:54;;;;;;;;;;;22.10;99.90;;;;;;5012277;28;19940;-71
2022/07/21 07:54:23;;;;;;;;;;;22.00;99.90;;;;;;5012350;28;19992;-72
2022/07/21 07:56:50;;;;;;;;;;;21.90;99.90;;;;;;5012292;28;19933;-71
2022/07/21 07:59:16;;;;;;;;;;;22.20;99.90;;;;;;5011619;28;20337;-71
2022/07/21 08:01:43;;;;;;;;;;;21.90;99.90;;;;;;5012301;28;19934;-71
2022/07/21 08:04:10;;;;;;;;;;;21.80;99.90;;;;;;5012143;28;19929;-71
2022/07/21 08:06:37;;;;;;;;;;;21.80;99.90;;;;;;5012186;28;19936;-71
2022/07/21 08:09:03;;;;;;;;;;;22.00;99.90;;;;;;5011566;28;19925;-72
2022/07/21 08:11:32;;;;;;;;;;;22.20;99.90;;;;;;5028817;28;19933;-71
2022/07/21 08:13:59;;;;;;;;;;;22.00;99.90;;;;;;5011793;28;19925;-71
2022/07/21 08:16:25;;;;;;;;;;;21.90;99.90;;;;;;5011911;28;19932;-72
2022/07/21 08:18:54;;;;;;;;;;;21.90;99.90;;;;;;5011482;28;19987;-72
2022/07/21 08:21:20;;;;;;;;;;;21.90;99.90;;;;;;5011619;28;19929;-72
2022/07/21 08:23:47;;;;;;;;;;;21.80;99.90;;;;;;5011415;28;19953;-72
2022/07/21 08:26:14;;;;;;;;;;;21.70;99.90;;;;;;5011015;28;19926;-72
2022/07/21 08:28:42;;;;;;;;;;;21.60;99.90;;;;;;5011358;28;19926;-72
2022/07/21 08:31:09;;;;;;;;;;;21.90;99.90;;;;;;5010835;28;19930;-73
2022/07/21 08:33:36;;;;;;;;;;;22.00;99.90;;;;;;5011006;28;19948;-72
2022/07/21 08:36:03;;;;;;;;;;;22.20;99.90;;;;;;5011724;28;19925;-72
2022/07/21 08:38:29;;;;;;;;;;;22.40;99.90;;;;;;5011117;28;19925;-72
2022/07/21 08:40:56;;;;;;;;;;;22.30;99.90;;;;;;5011138;28;19931;-72
2022/07/21 08:43:24;;;;;;;;;;;22.00;99.90;;;;;;5010846;28;19929;-71
2022/07/21 08:45:54;;;;;;;;;;;22.00;99.90;;;;;;5011508;28;20380;-72
2022/07/21 08:48:24;;;;;;;;;;;22.00;99.90;;;;;;5010872;28;19925;-72
2022/07/21 08:50:51;;;;;;;;;;;22.00;99.90;;;;;;5003459;28;19952;-71
2022/07/21 08:53:17;;;;;;;;;;;22.00;99.90;;;;;;5010845;28;19933;-72
2022/07/21 08:55:44;;;;;;;;;;;22.20;99.90;;;;;;5011144;28;19925;-72
2022/07/21 08:58:12;;;;;;;;;;;22.30;99.90;;;;;;5010975;28;20409;-72
2022/07/21 09:00:40;;;;;;;;;;;22.20;99.90;;;;;;5010625;28;20420;-72
2022/07/21 09:03:16;;;;;;;;;;;22.30;99.90;;;;;;5010937;28;19925;-73
2022/07/21 09:05:43;;;;;;;;;;;22.40;99.90;;;;;;5010727;28;19934;-73
2022/07/21 09:08:10;;;;;;;;;;;22.50;99.90;;;;;;5008862;28;20286;-73
2022/07/21 09:10:37;;;;;;;;;;;22.70;99.90;;;;;;5006811;28;19929;-72
2022/07/21 09:13:05;;;;;;;;;;;22.70;99.90;;;;;;5010603;28;20308;-72
2022/07/21 09:15:33;;;;;;;;;;;23.00;99.90;;;;;;5023339;28;20029;-72
2022/07/21 09:18:07;;;;;;;;;;;23.10;99.90;;;;;;5010425;28;20008;-73
2022/07/21 09:20:36;;;;;;;;;;;23.30;99.90;;;;;;5008923;28;19926;-70
2022/07/21 09:23:07;;;;;;;;;;;23.10;99.90;;;;;;5010334;28;19926;-71
2022/07/21 09:25:34;;;;;;;;;;;23.20;99.90;;;;;;5025854;28;19926;-72
2022/07/21 09:28:07;;;;;;;;;;;23.30;99.90;;;;;;5010206;28;19926;-71
2022/07/21 09:30:47;;;;;;;;;;;23.10;99.90;;;;;;5008570;28;20397;-71
2022/07/21 09:33:19;;;;;;;;;;;22.90;99.90;;;;;;5011417;28;19925;-70
2022/07/21 09:35:53;;;;;;;;;;;22.60;99.90;;;;;;5005565;28;19925;-70
2022/07/21 09:38:20;;;;;;;;;;;22.60;99.90;;;;;;5009919;28;19926;-69
2022/07/21 09:40:47;;;;;;;;;;;22.50;99.90;;;;;;5010825;28;20329;-70
2022/07/21 09:43:28;;;;;;;;;;;22.30;99.90;;;;;;5007564;28;20379;-70
2022/07/21 09:45:55;;;;;;;;;;;22.10;99.90;;;;;;5012596;28;19928;-68
2022/07/21 09:48:32;;;;;;;;;;;22.00;99.90;;;;;;5010772;28;19957;-67
2022/07/21 09:51:19;;;;;;;;;;;22.00;99.90;;;;;;5008477;28;19926;-67
2022/07/21 09:53:50;;;;;;;;;;;22.10;99.90;;;;;;5010580;28;19941;-69
2022/07/21 09:56:17;;;;;;;;;;;22.00;99.90;;;;;;5011034;28;19925;-69
2022/07/21 09:58:46;;;;;;;;;;;22.00;99.90;;;;;;5009638;28;20000;-70
2022/07/21 10:01:13;;;;;;;;;;;22.00;99.90;;;;;;5027022;28;19929;-69
2022/07/21 10:03:40;;;;;;;;;;;21.70;99.90;;;;;;5002376;28;19925;-70
2022/07/21 10:06:09;;;;;;;;;;;21.50;99.90;;;;;;5010383;28;19929;-69
2022/07/21 10:08:37;;;;;;;;;;;21.50;99.90;;;;;;5009930;28;19973;-71
2022/07/21 10:11:04;;;;;;;;;;;21.20;99.90;;;;;;5010556;28;19953;-71
2022/07/21 10:13:31;;;;;;;;;;;21.00;99.90;;;;;;5009466;28;20291;-70
2022/07/21 10:15:59;;;;;;;;;;;20.80;99.90;;;;;;5009616;28;19926;-71
2022/07/21 10:18:26;;;;;;;;;;;20.70;99.90;;;;;;5009451;28;19937;-71
2022/07/21 10:20:56;;;;;;;;;;;20.60;99.90;;;;;;5009536;28;20333;-71
2022/07/21 10:23:35;;;;;;;;;;;20.50;99.90;;;;;;5009091;28;20336;-71
2022/07/21 10:26:05;;;;;;;;;;;20.50;99.90;;;;;;5009774;28;19925;-70
2022/07/21 10:28:32;;;;;;;;;;;20.40;99.90;;;;;;5005953;28;20393;-71
2022/07/21 10:30:59;;;;;;;;;;;20.40;99.90;;;;;;5009384;28;19929;-71
2022/07/21 10:33:41;;;;;;;;;;;20.30;99.90;;;;;;5009138;28;19937;-71
2022/07/21 10:36:08;;;;;;;;;;;20.20;99.90;;;;;;5006970;28;19968;-70
2022/07/21 10:38:37;;;;;;;;;;;19.90;99.90;;;;;;5009086;28;19926;-70
2022/07/21 10:41:05;;;;;;;;;;;19.70;99.90;;;;;;5008961;28;20335;-70
2022/07/21 10:43:39;;;;;;;;;;;19.80;99.90;;;;;;5008667;28;19925;-70
2022/07/21 10:46:21;;;;;;;;;;;19.80;99.90;;;;;;5009655;28;20023;-70
2022/07/21 10:48:48;;;;;;;;;;;19.70;99.90;;;;;;5008129;28;19925;-70
2022/07/21 10:51:16;;;;;;;;;;;19.80;99.90;;;;;;5009472;28;19936;-70
2022/07/21 10:53:46;;;;;;;;;;;19.70;99.90;;;;;;5008813;28;19934;-71
2022/07/21 10:56:26;;;;;;;;;;;19.60;99.90;;;;;;5012519;28;20040;-71
2022/07/21 10:58:53;;;;;;;;;;;19.50;99.90;;;;;;5008499;28;19930;-71
2022/07/21 11:01:24;;;;;;;;;;;19.40;99.90;;;;;;5012987;28;19929;-70
2022/07/21 11:04:06;;;;;;;;;;;19.20;99.90;;;;;;5007119;28;19925;-70
2022/07/21 11:06:33;;;;;;;;;;;19.20;99.90;;;;;;5011262;28;19940;-70
2022/07/21 11:09:09;;;;;;;;;;;19.10;99.90;;;;;;5012622;28;19925;-70
2022/07/21 11:11:36;;;;;;;;;;;18.70;99.90;;;;;;5011381;28;19929;-70
2022/07/21 11:14:05;;;;;;;;;;;18.50;99.90;;;;;;5013080;28;19930;-70
2022/07/21 11:16:52;;;;;;;;;;;18.40;99.90;;;;;;5014009;28;19926;-70
2022/07/21 11:19:29;;;;;;;;;;;18.40;99.90;;;;;;5029609;28;19926;-71
2022/07/21 11:21:57;;;;;;;;;;;18.40;99.90;;;;;;5011749;28;19926;-71
2022/07/21 11:24:26;;;;;;;;;;;18.30;99.90;;;;;;5007722;28;19933;-70
2022/07/21 11:26:57;;;;;;;;;;;18.30;99.90;;;;;;5011909;28;19930;-71
2022/07/21 11:29:24;;;;;;;;;;;18.40;99.90;;;;;;5004361;28;19929;-70
2022/07/21 11:31:50;;;;;;;;;;;18.20;99.90;;;;;;5008148;28;20019;-71
2022/07/21 11:34:17;;;;;;;;;;;18.20;99.90;;;;;;4998885;28;19930;-72
2022/07/21 11:36:44;;;;;;;;;;;18.30;99.90;;;;;;5012136;28;20274;-70
2022/07/21 11:39:12;;;;;;;;;;;18.30;99.90;;;;;;5011728;28;20364;-70
2022/07/21 11:41:41;;;;;;;;;;;18.40;99.90;;;;;;5012179;28;19983;-70
2022/07/21 11:44:08;;;;;;;;;;;18.40;99.90;;;;;;5006527;28;19968;-70
2022/07/21 11:46:49;;;;;;;;;;;18.40;99.90;;;;;;5012106;28;19983;-71
2022/07/21 11:49:16;;;;;;;;;;;18.40;99.90;;;;;;5009680;28;19926;-71
2022/07/21 11:51:54;;;;;;;;;;;18.50;99.90;;;;;;5012071;28;20573;-70
2022/07/21 11:54:26;;;;;;;;;;;18.60;99.90;;;;;;5010567;28;19926;-70
2022/07/21 11:56:55;;;;;;;;;;;18.60;99.90;;;;;;5005935;28;19926;-70
2022/07/21 11:59:22;;;;;;;;;;;18.60;99.90;;;;;;5010950;28;19925;-71
2022/07/21 12:01:50;;;;;;;;;;;18.60;99.90;;;;;;5010376;28;19925;-70
2022/07/21 12:04:26;;;;;;;;;;;18.60;99.90;;;;;;5010138;28;19941;-72
2022/07/21 12:06:54;;;;;;;;;;;18.60;99.90;;;;;;5003021;28;19925;-71
2022/07/21 12:09:21;;;;;;;;;;;18.60;99.90;;;;;;5005991;28;19926;-71
2022/07/21 12:11:48;;;;;;;;;;;18.50;99.90;;;;;;5012214;28;19937;-70
2022/07/21 12:14:16;;;;;;;;;;;18.40;99.90;;;;;;5006896;28;19985;-70
2022/07/21 12:16:49;;;;;;;;;;;18.60;99.90;;;;;;5010434;28;19937;-71
2022/07/21 12:19:16;;;;;;;;;;;18.50;99.90;;;;;;5007836;28;20016;-70
2022/07/21 12:21:44;;;;;;;;;;;18.50;99.90;;;;;;5007229;28;20286;-67
2022/07/21 12:24:11;;;;;;;;;;;18.60;99.90;;;;;;5012440;28;20004;-69
2022/07/21 12:26:38;;;;;;;;;;;18.50;99.90;;;;;;5012045;28;19930;-70
2022/07/21 12:29:05;;;;;;;;;;;18.50;99.90;;;;;;5011578;28;19983;-70
2022/07/21 12:31:35;;;;;;;;;;;18.60;99.90;;;;;;5010391;28;19929;-69
2022/07/21 12:34:11;;;;;;;;;;;18.60;99.90;;;;;;5011497;28;19926;-75
2022/07/21 12:36:38;;;;;;;;;;;18.50;99.90;;;;;;5010255;28;19937;-76
2022/07/21 12:39:14;;;;;;;;;;;18.60;99.90;;;;;;5010731;28;20302;-73
2022/07/21 12:41:44;;;;;;;;;;;18.60;99.90;;;;;;5007795;28;20356;-74
2022/07/21 12:44:12;;;;;;;;;;;18.70;99.90;;;;;;5011043;28;19933;-71
2022/07/21 12:46:43;;;;;;;;;;;18.60;99.90;;;;;;5011408;28;19925;-71
2022/07/21 12:49:12;;;;;;;;;;;18.70;99.90;;;;;;5009611;28;19925;-71
2022/07/21 12:51:39;;;;;;;;;;;18.60;99.90;;;;;;5009047;28;19961;-71
2022/07/21 12:54:06;;;;;;;;;;;18.60;99.90;;;;;;5010495;28;19933;-72
2022/07/21 12:56:34;;;;;;;;;;;18.60;99.90;;;;;;5010747;28;19929;-71
2022/07/21 12:59:01;;;;;;;;;;;18.60;99.90;;;;;;5010257;28;19979;-72
2022/07/21 13:01:30;;;;;;;;;;;18.50;99.90;;;;;;5010456;28;19926;-71
2022/07/21 13:03:59;;;;;;;;;;;18.50;99.90;;;;;;5010195;28;19925;-71
2022/07/21 13:06:26;;;;;;;;;;;18.50;99.90;;;;;;5010510;28;19937;-70
2022/07/21 13:08:52;;;;;;;;;;;18.50;99.90;;;;;;5010347;28;19933;-71
2022/07/21 13:11:21;;;;;;;;;;;18.70;99.90;;;;;;5010398;28;19960;-70
2022/07/21 13:13:47;;;;;;;;;;;18.80;99.90;;;;;;5010442;28;19929;-71
2022/07/21 13:16:14;;;;;;;;;;;18.90;99.90;;;;;;5010377;28;19933;-71
2022/07/21 13:18:41;;;;;;;;;;;19.00;99.90;;;;;;5010148;28;19929;-71
2022/07/21 13:21:09;;;;;;;;;;;19.10;99.90;;;;;;5010193;28;19930;-70
2022/07/21 13:23:36;;;;;;;;;;;19.10;99.90;;;;;;5009965;28;19958;-71
2022/07/21 13:26:02;;;;;;;;;;;19.10;99.90;;;;;;5010531;28;19926;-71
2022/07/21 13:28:29;;;;;;;;;;;19.00;99.90;;;;;;5010001;28;19925;-72
2022/07/21 13:30:56;;;;;;;;;;;19.10;99.90;;;;;;5008212;28;19929;-71
2022/07/21 13:33:23;;;;;;;;;;;19.10;99.90;;;;;;5009820;28;19925;-71
2022/07/21 13:35:50;;;;;;;;;;;19.20;99.90;;;;;;5010046;28;19932;-72
2022/07/21 13:38:18;;;;;;;;;;;19.10;99.90;;;;;;5009591;28;19925;-71
2022/07/21 13:40:45;;;;;;;;;;;19.10;99.90;;;;;;5009982;28;19933;-71
2022/07/21 13:43:12;;;;;;;;;;;19.20;99.90;;;;;;5008970;28;19925;-71
2022/07/21 13:45:39;;;;;;;;;;;19.30;99.90;;;;;;5001765;28;19925;-72
2022/07/21 13:48:06;;;;;;;;;;;19.30;99.90;;;;;;5021990;28;20003;-71
2022/07/21 13:50:33;;;;;;;;;;;19.40;99.90;;;;;;5006906;28;19929;-71
2022/07/21 13:53:00;;;;;;;;;;;19.30;99.90;;;;;;5009098;28;20393;-70
2022/07/21 13:55:28;;;;;;;;;;;19.40;99.90;;;;;;5009692;28;20404;-70
2022/07/21 13:57:55;;;;;;;;;;;19.40;99.90;;;;;;5017007;28;19929;-70
2022/07/21 14:00:22;;;;;;;;;;;19.10;99.90;;;;;;5009244;28;19933;-70
2022/07/21 14:02:48;;;;;;;;;;;19.10;99.90;;;;;;5004074;28;20009;-71
2022/07/21 14:05:15;;;;;;;;;;;19.10;99.90;;;;;;5009553;28;19937;-70
2022/07/21 14:07:42;;;;;;;;;;;19.10;99.90;;;;;;5009458;28;20328;-70
2022/07/21 14:10:09;;;;;;;;;;;19.10;99.90;;;;;;5009484;28;19926;-71
2022/07/21 14:12:38;;;;;;;;;;;19.10;99.90;;;;;;5009386;28;19926;-71
2022/07/21 14:15:05;;;;;;;;;;;18.90;99.90;;;;;;5008969;28;19976;-70
2022/07/21 14:17:32;;;;;;;;;;;18.80;99.90;;;;;;5013398;28;19926;-70
2022/07/21 14:19:58;;;;;;;;;;;18.80;99.90;;;;;;5001132;28;20364;-71
2022/07/21 14:22:25;;;;;;;;;;;18.90;99.90;;;;;;5004059;28;19949;-71